createdAt,value
2018-02-18T00:00:07.899Z,16.60
2018-02-18T00:02:34.147Z,15.38
2018-02-18T00:05:00.365Z,15.85
2018-02-18T00:07:26.599Z,13.82
2018-02-18T00:09:52.826Z,15.85
2018-02-18T00:12:19.094Z,15.18
2018-02-18T00:14:46.199Z,14.68
2018-02-18T00:17:13.185Z,15.73
2018-02-18T00:19:39.413Z,15.38
2018-02-18T00:22:06.401Z,15.73
2018-02-18T00:24:32.604Z,15.50
2018-02-18T00:26:59.643Z,16.80
2018-02-18T00:29:25.877Z,16.02
2018-02-18T00:31:52.121Z,15.75
2018-02-18T00:34:18.339Z,16.27
2018-02-18T00:36:44.615Z,15.43
2018-02-18T00:39:11.596Z,15.27
2018-02-18T00:41:37.838Z,16.02
2018-02-18T00:44:04.067Z,17.95
2018-02-18T00:46:31.020Z,16.00
2018-02-18T00:48:57.983Z,16.15
2018-02-18T00:51:24.926Z,14.85
2018-02-18T00:53:51.138Z,14.15
2018-02-18T00:56:17.360Z,16.20
2018-02-18T00:58:43.590Z,14.43
2018-02-18T01:01:09.836Z,15.52
2018-02-18T01:03:36.074Z,15.98
2018-02-18T01:06:02.304Z,15.32
2018-02-18T01:08:28.512Z,13.52
2018-02-18T01:10:54.737Z,14.05
2018-02-18T01:13:21.035Z,15.70
2018-02-18T01:15:47.307Z,12.27
2018-02-18T01:18:13.516Z,13.88
2018-02-18T01:20:39.760Z,14.52
2018-02-18T01:23:06.004Z,13.15
2018-02-18T01:25:32.239Z,14.13
2018-02-18T01:27:58.465Z,15.18
2018-02-18T01:30:24.697Z,14.43
2018-02-18T01:32:50.926Z,13.98
2018-02-18T01:35:17.891Z,13.25
2018-02-18T01:37:44.111Z,15.10
2018-02-18T01:42:43.938Z,15.40
2018-02-18T01:45:10.168Z,15.35
2018-02-18T01:47:36.376Z,14.65
2018-02-18T01:50:14.767Z,16.25
2018-02-18T01:52:40.980Z,15.70
2018-02-18T01:55:07.202Z,16.27
2018-02-18T01:57:33.430Z,16.25
2018-02-18T01:59:59.648Z,16.17
2018-02-18T02:02:26.627Z,14.95
2018-02-18T02:04:52.840Z,15.63
2018-02-18T02:07:19.088Z,14.90
2018-02-18T02:09:45.293Z,17.08
2018-02-18T02:12:11.515Z,17.95
2018-02-18T02:14:37.750Z,16.12
2018-02-18T02:17:03.969Z,16.92
2018-02-18T02:19:30.202Z,16.55
2018-02-18T02:21:56.420Z,16.20
2018-02-18T02:24:23.379Z,15.75
2018-02-18T02:26:50.375Z,15.85
2018-02-18T02:29:16.608Z,16.70
2018-02-18T02:31:42.843Z,16.42
2018-02-18T02:34:09.072Z,17.23
2018-02-18T02:36:35.275Z,15.93
2018-02-18T02:39:01.477Z,18.73
2018-02-18T02:41:27.729Z,17.92
2018-02-18T02:43:53.961Z,16.50
2018-02-18T02:46:20.168Z,16.65
2018-02-18T02:48:46.372Z,18.95
2018-02-18T02:51:12.590Z,16.27
2018-02-18T02:53:38.817Z,16.65
2018-02-18T02:56:05.782Z,18.15
2018-02-18T02:58:32.012Z,17.55
2018-02-18T03:00:58.224Z,16.40
2018-02-18T03:03:25.176Z,16.12
2018-02-18T03:05:51.413Z,17.05
2018-02-18T03:08:17.628Z,18.08
2018-02-18T03:10:43.858Z,17.95
2018-02-18T03:13:10.088Z,17.12
2018-02-18T03:15:36.668Z,19.05
2018-02-18T03:18:02.905Z,19.50
2018-02-18T03:20:29.124Z,16.70
2018-02-18T03:22:55.332Z,17.75
2018-02-18T03:25:21.538Z,17.58
2018-02-18T03:27:48.486Z,16.92
2018-02-18T03:30:14.715Z,18.35
2018-02-18T03:32:40.961Z,16.55
2018-02-18T03:35:07.159Z,16.90
2018-02-18T03:37:33.381Z,17.73
2018-02-18T03:39:59.614Z,16.08
2018-02-18T03:42:25.829Z,17.05
2018-02-18T03:44:52.792Z,15.63
2018-02-18T03:47:19.742Z,18.10
2018-02-18T03:49:45.984Z,17.40
2018-02-18T03:52:12.192Z,16.80
2018-02-18T03:54:38.413Z,17.85
2018-02-18T03:57:04.677Z,18.80
2018-02-18T03:59:30.876Z,18.08
2018-02-18T04:01:57.148Z,18.02
2018-02-18T04:04:23.368Z,18.70
2018-02-18T04:06:49.966Z,18.65
2018-02-18T04:09:16.170Z,19.40
2018-02-18T04:11:42.384Z,19.58
2018-02-18T04:14:08.615Z,19.85
2018-02-18T04:16:34.824Z,19.40
2018-02-18T04:19:01.038Z,21.42
2018-02-18T04:21:27.273Z,18.90
2018-02-18T04:23:53.773Z,26.77
2018-02-18T04:26:20.724Z,21.92
2018-02-18T04:28:47.678Z,29.17
2018-02-18T04:31:14.667Z,33.20
2018-02-18T04:33:40.885Z,27.92
2018-02-18T04:36:07.851Z,29.52
2018-02-18T04:38:34.073Z,40.90
2018-02-18T04:41:00.311Z,24.10
2018-02-18T04:43:26.514Z,21.87
2018-02-18T04:45:52.737Z,21.90
2018-02-18T04:48:18.957Z,20.77
2018-02-18T04:50:45.156Z,22.48
2018-02-18T04:53:11.379Z,20.50
2018-02-18T04:55:37.607Z,20.33
2018-02-18T04:58:03.833Z,20.30
2018-02-18T05:00:30.051Z,21.42
2018-02-18T05:02:56.246Z,22.52
2018-02-18T05:05:22.487Z,21.02
2018-02-18T05:07:48.690Z,22.13
2018-02-18T05:10:14.908Z,20.23
2018-02-18T05:12:41.132Z,23.10
2018-02-18T05:15:08.084Z,20.88
2018-02-18T05:17:35.064Z,22.52
2018-02-18T05:20:01.283Z,23.62
2018-02-18T05:22:28.242Z,21.65
2018-02-18T05:24:55.188Z,21.87
2018-02-18T05:27:21.424Z,21.00
2018-02-18T05:29:47.630Z,22.05
2018-02-18T05:32:13.846Z,21.80
2018-02-18T05:34:40.080Z,22.48
2018-02-18T05:37:06.273Z,22.27
2018-02-18T05:39:32.506Z,21.60
2018-02-18T05:41:58.712Z,20.65
2018-02-18T05:44:24.942Z,22.15
2018-02-18T05:46:51.156Z,19.85
2018-02-18T05:49:18.106Z,21.52
2018-02-18T05:51:44.325Z,21.17
2018-02-18T05:54:10.528Z,21.02
2018-02-18T05:56:36.751Z,22.42
2018-02-18T05:59:02.963Z,22.17
2018-02-18T06:01:29.186Z,25.35
2018-02-18T06:03:55.383Z,23.40
2018-02-18T06:06:21.592Z,20.83
2018-02-18T06:08:48.561Z,19.17
2018-02-18T06:11:15.517Z,18.50
2018-02-18T06:13:42.514Z,16.90
2018-02-18T06:16:08.736Z,20.40
2018-02-18T06:18:34.943Z,17.00
2018-02-18T06:21:01.148Z,18.98
2018-02-18T06:23:27.383Z,17.85
2018-02-18T06:25:53.613Z,20.55
2018-02-18T06:28:19.833Z,16.98
2018-02-18T06:30:46.054Z,17.92
2018-02-18T06:33:13.013Z,22.95
2018-02-18T06:35:39.264Z,33.85
2018-02-18T06:38:05.503Z,52.53
2018-02-18T06:40:31.743Z,206.98
2018-02-18T06:42:57.967Z,203.43
2018-02-18T06:45:24.932Z,61.65
2018-02-18T06:47:51.903Z,36.17
2018-02-18T06:50:18.133Z,36.22
2018-02-18T06:52:45.095Z,29.85
2018-02-18T06:55:11.318Z,25.73
2018-02-18T06:57:38.299Z,24.65
2018-02-18T07:00:04.545Z,23.30
2018-02-18T07:02:30.763Z,21.25
2018-02-18T07:04:57.729Z,22.05
2018-02-18T07:07:24.705Z,20.92
2018-02-18T07:09:50.947Z,21.65
2018-02-18T07:12:17.168Z,20.45
2018-02-18T07:14:44.137Z,19.60
2018-02-18T07:17:10.378Z,19.40
2018-02-18T07:19:36.607Z,19.05
2018-02-18T07:22:02.837Z,19.48
2018-02-18T07:24:29.807Z,18.73
2018-02-18T07:26:56.051Z,19.48
2018-02-18T07:29:22.270Z,19.70
2018-02-18T07:31:49.231Z,16.80
2018-02-18T07:34:16.218Z,19.45
2018-02-18T07:36:42.475Z,18.83
2018-02-18T07:39:08.697Z,18.40
2018-02-18T07:41:34.910Z,18.33
2018-02-18T07:44:01.868Z,19.10
2018-02-18T07:46:28.097Z,18.62
2018-02-18T07:48:55.089Z,18.10
2018-02-18T07:51:21.330Z,21.02
2018-02-18T07:53:47.592Z,21.58
2018-02-18T07:56:13.876Z,22.30
2018-02-18T07:58:40.096Z,20.33
2018-02-18T08:01:06.335Z,18.90
2018-02-18T08:03:32.561Z,19.77
2018-02-18T08:05:58.798Z,22.77
2018-02-18T08:08:25.000Z,21.45
2018-02-18T08:10:51.986Z,20.35
2018-02-18T08:13:18.414Z,18.80
2018-02-18T08:15:44.673Z,18.70
2018-02-18T08:18:10.928Z,18.37
2018-02-18T08:20:37.136Z,17.40
2018-02-18T08:23:03.386Z,17.02
2018-02-18T08:25:29.616Z,20.50
2018-02-18T08:27:55.843Z,19.42
2018-02-18T08:30:22.811Z,17.70
2018-02-18T08:32:49.032Z,17.98
2018-02-18T08:35:15.988Z,18.15
2018-02-18T08:37:42.214Z,19.77
2018-02-18T08:40:08.446Z,20.08
2018-02-18T08:42:34.679Z,20.05
2018-02-18T08:45:00.924Z,17.98
2018-02-18T08:47:27.312Z,18.60
2018-02-18T08:49:53.573Z,18.35
2018-02-18T08:52:19.800Z,16.90
2018-02-18T08:54:46.062Z,18.52
2018-02-18T08:57:12.262Z,18.70
2018-02-18T08:59:39.263Z,18.75
2018-02-18T09:02:05.492Z,18.23
2018-02-18T09:04:31.736Z,19.40
2018-02-18T09:06:57.972Z,17.70
2018-02-18T09:09:24.194Z,20.85
2018-02-18T09:11:50.431Z,18.27
2018-02-18T09:14:17.584Z,18.05
2018-02-18T09:16:44.604Z,18.70
2018-02-18T09:19:10.865Z,21.27
2018-02-18T09:21:37.097Z,19.15
2018-02-18T09:24:03.392Z,18.70
2018-02-18T09:26:29.650Z,20.40
2018-02-18T09:28:55.974Z,18.60
2018-02-18T09:31:22.236Z,19.33
2018-02-18T09:33:48.515Z,16.62
2018-02-18T09:36:14.759Z,18.27
2018-02-18T09:38:40.977Z,17.77
2018-02-18T09:41:07.283Z,19.20
2018-02-18T09:43:40.502Z,17.58
2018-02-18T09:46:06.759Z,19.20
2018-02-18T09:48:32.985Z,17.02
2018-02-18T09:50:59.236Z,18.08
2018-02-18T09:53:25.485Z,16.35
2018-02-18T09:55:51.733Z,18.42
2018-02-18T09:58:18.017Z,18.10
2018-02-18T10:00:44.237Z,19.37
2018-02-18T10:03:11.215Z,20.25
2018-02-18T10:05:37.443Z,17.62
2018-02-18T10:08:03.701Z,18.67
2018-02-18T10:10:29.928Z,18.35
2018-02-18T10:12:56.969Z,16.92
2018-02-18T10:15:23.215Z,18.20
2018-02-18T10:17:49.426Z,17.45
2018-02-18T10:20:15.673Z,18.48
2018-02-18T10:22:41.904Z,17.37
2018-02-18T10:25:08.128Z,16.50
2018-02-18T10:27:34.345Z,17.90
2018-02-18T10:30:01.339Z,17.98
2018-02-18T10:32:27.578Z,16.17
2018-02-18T10:34:53.802Z,44.53
2018-02-18T10:37:20.067Z,128.12
2018-02-18T10:39:46.276Z,40.65
2018-02-18T10:42:12.561Z,36.53
2018-02-18T10:44:38.808Z,19.40
2018-02-18T10:47:05.056Z,17.42
2018-02-18T10:49:32.145Z,16.50
2018-02-18T10:51:58.570Z,18.37
2018-02-18T10:54:25.654Z,19.25
2018-02-18T10:56:51.918Z,20.83
2018-02-18T10:59:19.346Z,19.33
2018-02-18T11:01:47.381Z,20.60
2018-02-18T11:04:13.645Z,18.87
2018-02-18T11:06:39.895Z,18.08
2018-02-18T11:09:06.858Z,19.45
2018-02-18T11:11:33.829Z,18.23
2018-02-18T11:14:00.933Z,19.80
2018-02-18T11:16:27.383Z,19.15
2018-02-18T11:18:53.651Z,18.95
2018-02-18T11:21:19.892Z,21.75
2018-02-18T11:23:53.108Z,18.87
2018-02-18T11:26:20.111Z,19.75
2018-02-18T11:28:46.364Z,19.25
2018-02-18T11:31:12.616Z,19.17
2018-02-18T11:33:38.897Z,19.48
2018-02-18T11:36:05.889Z,19.75
2018-02-18T11:38:32.180Z,18.12
2018-02-18T11:40:58.435Z,19.40
2018-02-18T11:43:25.783Z,19.75
2018-02-18T11:45:52.268Z,20.05
2018-02-18T11:48:18.809Z,18.42
2018-02-18T11:50:45.329Z,20.00
2018-02-18T11:53:12.321Z,19.92
2018-02-18T11:55:38.551Z,19.95
2018-02-18T11:58:04.835Z,17.87
2018-02-18T12:00:31.188Z,18.83
2018-02-18T12:02:57.445Z,19.10
2018-02-18T12:05:23.705Z,18.05
2018-02-18T12:07:52.509Z,18.87
2018-02-18T12:10:19.652Z,16.20
2018-02-18T12:12:46.171Z,17.10
2018-02-18T12:15:12.380Z,17.85
2018-02-18T12:17:38.695Z,18.67
2018-02-18T12:20:05.696Z,18.80
2018-02-18T12:22:32.066Z,16.75
2018-02-18T12:24:58.313Z,15.93
2018-02-18T12:27:24.541Z,16.20
2018-02-18T12:29:50.796Z,15.45
2018-02-18T12:32:17.061Z,16.75
2018-02-18T12:34:45.108Z,15.10
2018-02-18T12:37:11.426Z,15.82
2018-02-18T12:39:37.706Z,17.12
2018-02-18T12:42:04.008Z,16.37
2018-02-18T12:44:30.290Z,17.85
2018-02-18T12:46:56.556Z,19.08
2018-02-18T12:49:22.780Z,18.83
2018-02-18T12:51:49.015Z,16.35
2018-02-18T12:54:15.299Z,17.42
2018-02-18T12:56:41.574Z,16.55
2018-02-18T12:59:07.829Z,16.70
2018-02-18T13:01:34.138Z,18.12
2018-02-18T13:04:00.394Z,20.90
2018-02-18T13:06:26.664Z,18.55
2018-02-18T13:08:52.976Z,17.00
2018-02-18T13:11:19.236Z,17.87
2018-02-18T13:13:45.495Z,19.52
2018-02-18T13:16:12.571Z,17.90
2018-02-18T13:18:38.833Z,16.25
2018-02-18T13:21:05.105Z,18.62
2018-02-18T13:23:31.416Z,17.67
2018-02-18T13:25:57.731Z,21.20
2018-02-18T13:28:24.713Z,18.85
2018-02-18T13:30:51.012Z,20.02
2018-02-18T13:33:17.283Z,20.27
2018-02-18T13:35:44.279Z,19.40
2018-02-18T13:38:10.539Z,19.33
2018-02-18T13:40:36.816Z,18.23
2018-02-18T13:43:03.851Z,19.83
2018-02-18T13:45:30.121Z,17.92
2018-02-18T13:47:56.424Z,19.10
2018-02-18T13:50:22.711Z,19.62
2018-02-18T13:52:49.696Z,18.25
2018-02-18T13:55:16.052Z,18.95
2018-02-18T13:57:42.318Z,18.83
2018-02-18T14:00:08.619Z,18.48
2018-02-18T14:02:34.849Z,18.23
2018-02-18T14:05:01.129Z,18.52
2018-02-18T14:07:27.403Z,17.77
2018-02-18T14:09:54.400Z,19.48
2018-02-18T14:12:20.653Z,18.27
2018-02-18T14:14:46.910Z,19.52
2018-02-18T14:17:13.206Z,18.08
2018-02-18T14:19:39.437Z,18.17
2018-02-18T14:22:05.697Z,16.98
2018-02-18T14:24:31.954Z,17.05
2018-02-18T14:26:58.259Z,19.62
2018-02-18T14:29:25.292Z,17.98
2018-02-18T14:31:51.617Z,18.87
2018-02-18T14:34:17.852Z,19.10
2018-02-18T14:36:44.139Z,18.62
2018-02-18T14:39:10.454Z,18.48
2018-02-18T14:41:49.080Z,18.48
2018-02-18T14:44:27.765Z,17.08
2018-02-18T14:47:06.413Z,15.05
2018-02-18T14:49:45.117Z,17.67
2018-02-18T14:52:24.245Z,16.45
2018-02-18T14:55:03.533Z,17.62
2018-02-18T14:57:33.837Z,18.87
2018-02-18T15:00:00.854Z,17.27
2018-02-18T15:02:27.089Z,18.02
2018-02-18T15:04:53.351Z,18.30
2018-02-18T15:07:19.651Z,16.52
2018-02-18T15:09:45.876Z,17.15
2018-02-18T15:12:12.123Z,16.30
2018-02-18T15:14:38.432Z,16.87
2018-02-18T15:17:04.703Z,17.83
2018-02-18T15:19:30.948Z,16.23
2018-02-18T15:21:57.228Z,16.35
2018-02-18T15:24:23.470Z,15.43
2018-02-18T15:26:49.744Z,15.35
2018-02-18T15:29:16.788Z,15.48
2018-02-18T15:31:43.110Z,17.10
2018-02-18T15:34:09.388Z,17.48
2018-02-18T15:36:36.462Z,13.82
2018-02-18T15:39:02.810Z,13.62
2018-02-18T15:41:29.107Z,12.88
2018-02-18T15:43:55.347Z,11.23
2018-02-18T15:46:21.623Z,12.93
2018-02-18T15:48:48.700Z,12.43
2018-02-18T15:51:14.973Z,13.93
2018-02-18T15:53:41.297Z,12.20
2018-02-18T15:56:07.589Z,13.43
2018-02-18T15:58:34.655Z,13.27
2018-02-18T16:01:01.717Z,14.50
2018-02-18T16:03:28.771Z,15.20
2018-02-18T16:05:55.813Z,14.05
2018-02-18T16:08:22.103Z,15.63
2018-02-18T16:10:48.415Z,15.38
2018-02-18T16:13:15.530Z,14.60
2018-02-18T16:15:41.881Z,17.05
2018-02-18T16:18:08.169Z,14.27
2018-02-18T16:20:35.182Z,14.65
2018-02-18T16:23:01.535Z,14.75
2018-02-18T16:25:27.797Z,13.88
2018-02-18T16:27:54.101Z,12.93
2018-02-18T16:30:20.415Z,14.10
2018-02-18T16:32:46.763Z,13.73
2018-02-18T16:35:13.106Z,16.73
2018-02-18T16:37:39.531Z,14.75
2018-02-18T16:40:06.609Z,14.95
2018-02-18T16:42:32.892Z,15.10
2018-02-18T16:44:59.178Z,14.85
2018-02-18T16:47:26.177Z,13.80
2018-02-18T16:49:52.511Z,13.70
2018-02-18T16:52:18.808Z,14.45
2018-02-18T16:54:45.853Z,13.62
2018-02-18T16:57:12.169Z,14.18
2018-02-18T16:59:38.469Z,16.00
2018-02-18T17:02:04.821Z,13.93
2018-02-18T17:04:31.113Z,14.30
2018-02-18T17:06:57.432Z,13.95
2018-02-18T17:09:23.772Z,14.57
2018-02-18T17:11:50.059Z,16.48
2018-02-18T17:14:17.133Z,14.68
2018-02-18T17:16:44.175Z,13.18
2018-02-18T17:19:11.371Z,15.13
2018-02-18T17:21:37.713Z,15.25
2018-02-18T17:24:04.698Z,14.90
2018-02-18T17:26:31.060Z,14.57
2018-02-18T17:28:57.358Z,18.58
2018-02-18T17:31:30.541Z,16.00
2018-02-18T17:33:56.848Z,15.18
2018-02-18T17:36:23.146Z,15.80
2018-02-18T17:38:49.483Z,17.33
2018-02-18T17:41:16.542Z,15.00
2018-02-18T17:43:42.865Z,17.55
2018-02-18T17:46:09.916Z,19.85
2018-02-18T17:48:36.224Z,18.15
2018-02-18T17:51:02.556Z,16.52
2018-02-18T17:53:29.770Z,17.48
2018-02-18T17:55:57.600Z,19.58
2018-02-18T17:58:23.927Z,19.02
2018-02-18T18:00:50.236Z,19.00
2018-02-18T18:03:18.050Z,20.60
2018-02-18T18:05:44.360Z,19.15
2018-02-18T18:08:11.396Z,21.75
2018-02-18T18:10:37.696Z,20.90
2018-02-18T18:13:04.042Z,20.52
2018-02-18T18:15:30.332Z,20.55
2018-02-18T18:17:57.555Z,19.85
2018-02-18T18:20:23.931Z,19.90
2018-02-18T18:22:50.240Z,21.55
2018-02-18T18:25:17.477Z,19.08
2018-02-18T18:27:43.782Z,21.15
2018-02-18T18:30:10.131Z,20.60
2018-02-18T18:32:38.173Z,19.35
2018-02-18T18:35:04.516Z,18.40
2018-02-18T18:37:30.832Z,20.65
2018-02-18T18:39:57.102Z,21.25
2018-02-18T18:42:23.442Z,21.30
2018-02-18T18:44:50.564Z,21.33
2018-02-18T18:47:17.760Z,20.30
2018-02-18T18:49:44.419Z,19.60
2018-02-18T18:52:10.824Z,19.45
2018-02-18T18:54:37.122Z,23.42
2018-02-18T18:57:03.446Z,19.80
2018-02-18T18:59:29.808Z,19.70
2018-02-18T19:01:56.172Z,19.67
2018-02-18T19:04:23.244Z,18.73
2018-02-18T19:06:50.292Z,19.42
2018-02-18T19:09:16.639Z,18.17
2018-02-18T19:11:43.823Z,18.58
2018-02-18T19:14:10.228Z,17.35
2018-02-18T19:16:36.538Z,18.80
2018-02-18T19:19:02.857Z,19.80
2018-02-18T19:21:29.172Z,17.08
2018-02-18T19:23:55.565Z,16.20
2018-02-18T19:26:23.165Z,18.30
2018-02-18T19:28:49.677Z,18.75
2018-02-18T19:31:16.014Z,18.98
2018-02-18T19:33:45.728Z,18.67
2018-02-18T19:36:12.216Z,17.87
2018-02-18T19:38:38.547Z,19.00
2018-02-18T19:41:05.899Z,18.85
2018-02-18T19:43:32.586Z,19.90
2018-02-18T19:45:59.072Z,19.40
2018-02-18T19:48:26.482Z,20.00
2018-02-18T19:50:52.764Z,17.95
2018-02-18T19:53:20.405Z,17.87
2018-02-18T19:55:47.517Z,19.00
2018-02-18T19:58:14.742Z,18.75
2018-02-18T20:00:42.653Z,18.65
2018-02-18T20:03:09.524Z,19.33
2018-02-18T20:05:36.224Z,18.67
2018-02-18T20:08:03.359Z,19.48
2018-02-18T20:10:31.488Z,19.95
2018-02-18T20:12:59.077Z,16.77
2018-02-18T20:15:31.213Z,20.50
2018-02-18T20:17:57.559Z,18.00
2018-02-18T20:20:24.862Z,17.95
2018-02-18T20:22:51.948Z,19.55
2018-02-18T20:25:18.556Z,19.33
2018-02-18T20:27:45.703Z,20.12
2018-02-18T20:30:12.960Z,19.50
2018-02-18T20:32:39.352Z,17.60
2018-02-18T20:35:07.427Z,19.05
2018-02-18T20:37:35.685Z,16.83
2018-02-18T20:40:02.062Z,18.98
2018-02-18T20:42:29.190Z,17.83
2018-02-18T20:44:56.376Z,18.67
2018-02-18T20:47:23.430Z,17.50
2018-02-18T20:49:51.222Z,17.83
2018-02-18T20:52:18.012Z,14.50
2018-02-18T20:54:44.683Z,19.42
2018-02-18T20:57:12.435Z,17.27
2018-02-18T20:59:39.640Z,17.45
2018-02-18T21:02:05.958Z,19.60
2018-02-18T21:04:32.978Z,18.05
2018-02-18T21:07:00.143Z,17.45
2018-02-18T21:09:26.570Z,20.23
2018-02-18T21:11:53.605Z,19.20
2018-02-18T21:14:20.017Z,16.98
2018-02-18T21:16:46.341Z,19.37
2018-02-18T21:19:12.640Z,19.15
2018-02-18T21:21:38.937Z,17.77
2018-02-18T21:24:05.249Z,18.33
2018-02-18T21:26:32.533Z,18.60
2018-02-18T21:28:59.773Z,18.02
2018-02-18T21:31:27.332Z,17.25
2018-02-18T21:33:57.677Z,16.83
2018-02-18T21:36:24.516Z,18.23
2018-02-18T21:38:51.316Z,17.73
2018-02-18T21:41:18.142Z,18.55
2018-02-18T21:43:45.263Z,18.40
2018-02-18T21:46:11.533Z,18.02
2018-02-18T21:48:37.876Z,17.12
2018-02-18T21:51:04.890Z,16.02
2018-02-18T21:53:31.163Z,17.08
2018-02-18T21:55:57.397Z,16.90
2018-02-18T21:58:24.150Z,17.62
2018-02-18T22:00:50.562Z,15.95
2018-02-18T22:03:17.121Z,16.40
2018-02-18T22:05:43.606Z,18.80
2018-02-18T22:08:10.031Z,16.52
2018-02-18T22:10:36.270Z,15.48
2018-02-18T22:13:02.563Z,17.50
2018-02-18T22:15:28.801Z,17.02
2018-02-18T22:17:55.785Z,15.02
2018-02-18T22:20:22.015Z,14.95
2018-02-18T22:22:48.258Z,14.77
2018-02-18T22:25:14.752Z,15.45
2018-02-18T22:27:40.970Z,16.08
2018-02-18T22:30:07.190Z,15.90
2018-02-18T22:32:33.436Z,16.55
2018-02-18T22:34:59.652Z,16.37
2018-02-18T22:37:25.918Z,15.00
2018-02-18T22:39:52.144Z,15.40
2018-02-18T22:42:18.372Z,16.17
2018-02-18T22:44:44.622Z,19.05
2018-02-18T22:47:10.826Z,16.00
2018-02-18T22:49:37.071Z,15.77
2018-02-18T22:52:03.318Z,12.82
2018-02-18T22:54:30.264Z,14.30
2018-02-18T22:56:57.239Z,15.10
2018-02-18T22:59:24.222Z,13.10
2018-02-18T23:01:50.486Z,13.95
2018-02-18T23:04:16.713Z,12.85
2018-02-18T23:06:42.931Z,13.77
2018-02-18T23:09:09.158Z,12.15
2018-02-18T23:11:36.115Z,11.50
2018-02-18T23:14:02.378Z,10.13
2018-02-18T23:16:28.595Z,10.80
2018-02-18T23:18:54.858Z,11.77
2018-02-18T23:21:21.063Z,10.45
2018-02-18T23:23:47.297Z,10.57
2018-02-18T23:26:13.531Z,11.50
2018-02-18T23:28:39.745Z,10.25
2018-02-18T23:31:05.956Z,10.68
2018-02-18T23:33:32.183Z,9.93
2018-02-18T23:35:58.419Z,9.60
2018-02-18T23:38:24.644Z,10.35
2018-02-18T23:40:51.599Z,10.40
2018-02-18T23:43:17.837Z,10.02
2018-02-18T23:45:44.071Z,9.07
2018-02-18T23:48:10.285Z,9.30
2018-02-18T23:50:36.528Z,8.77
2018-02-18T23:53:02.757Z,10.43
2018-02-18T23:55:29.009Z,11.65
2018-02-18T23:57:55.217Z,9.75
